createdAt,value
2018-07-12T00:00:14.095Z,17.44
2018-07-12T00:02:41.404Z,17.46
2018-07-12T00:05:08.742Z,17.49
2018-07-12T00:07:36.083Z,17.49
2018-07-12T00:10:03.436Z,17.47
2018-07-12T00:12:30.772Z,17.47
2018-07-12T00:14:58.104Z,17.48
2018-07-12T00:17:25.449Z,17.50
2018-07-12T00:19:52.758Z,17.48
2018-07-12T00:22:20.138Z,17.46
2018-07-12T00:24:47.725Z,17.44
2018-07-12T00:27:15.394Z,17.46
2018-07-12T00:29:42.749Z,17.44
2018-07-12T00:32:10.060Z,17.43
2018-07-12T00:34:37.389Z,17.42
2018-07-12T00:37:05.579Z,17.40
2018-07-12T00:39:32.954Z,17.41
2018-07-12T00:42:00.290Z,17.40
2018-07-12T00:44:27.683Z,17.37
2018-07-12T00:46:55.007Z,17.38
2018-07-12T00:49:22.341Z,17.36
2018-07-12T00:51:49.685Z,17.38
2018-07-12T00:54:17.065Z,17.38
2018-07-12T00:56:44.420Z,17.38
2018-07-12T00:59:11.777Z,17.39
2018-07-12T01:01:39.245Z,17.39
2018-07-12T01:04:06.581Z,17.38
2018-07-12T01:06:33.948Z,17.33
2018-07-12T01:09:01.580Z,17.26
2018-07-12T01:11:29.138Z,17.12
2018-07-12T01:13:56.759Z,17.02
2018-07-12T01:16:24.155Z,16.97
2018-07-12T01:18:51.520Z,16.92
2018-07-12T01:21:18.969Z,16.83
2018-07-12T01:23:46.374Z,16.76
2018-07-12T01:26:13.737Z,16.72
2018-07-12T01:28:41.101Z,16.61
2018-07-12T01:31:08.443Z,16.59
2018-07-12T01:33:35.783Z,16.54
2018-07-12T01:36:03.186Z,16.48
2018-07-12T01:38:30.586Z,16.46
2018-07-12T01:40:58.211Z,16.33
2018-07-12T01:43:25.552Z,16.20
2018-07-12T01:45:53.548Z,16.08
2018-07-12T01:48:20.932Z,16.11
2018-07-12T01:50:48.572Z,16.13
2018-07-12T01:53:15.926Z,16.11
2018-07-12T01:55:43.582Z,16.09
2018-07-12T01:58:10.897Z,16.04
2018-07-12T02:00:38.751Z,16.05
2018-07-12T02:03:06.060Z,15.99
2018-07-12T02:05:33.729Z,16.01
2018-07-12T02:08:01.331Z,15.99
2018-07-12T02:10:28.698Z,16.03
2018-07-12T02:12:56.041Z,16.10
2018-07-12T02:15:23.399Z,16.13
2018-07-12T02:17:50.745Z,16.14
2018-07-12T02:20:18.128Z,16.13
2018-07-12T02:22:45.608Z,16.21
2018-07-12T02:25:12.980Z,16.25
2018-07-12T02:27:40.464Z,16.33
2018-07-12T02:30:07.781Z,16.42
2018-07-12T02:32:35.133Z,16.47
2018-07-12T02:35:02.732Z,16.48
2018-07-12T02:37:30.067Z,16.45
2018-07-12T02:39:57.380Z,16.42
2018-07-12T02:42:24.741Z,16.41
2018-07-12T02:44:52.331Z,16.36
2018-07-12T02:47:20.091Z,16.23
2018-07-12T02:49:47.555Z,16.14
2018-07-12T02:52:15.414Z,15.91
2018-07-12T02:54:43.014Z,15.71
2018-07-12T02:57:10.349Z,15.64
2018-07-12T02:59:37.689Z,15.53
2018-07-12T03:02:05.289Z,15.48
2018-07-12T03:04:32.678Z,15.45
2018-07-12T03:07:00.284Z,15.33
2018-07-12T03:09:27.949Z,15.27
2018-07-12T03:11:55.270Z,15.27
2018-07-12T03:14:22.647Z,15.22
2018-07-12T03:16:50.006Z,15.22
2018-07-12T03:19:17.356Z,15.23
2018-07-12T03:21:44.683Z,15.21
2018-07-12T03:24:12.018Z,15.19
2018-07-12T03:26:39.366Z,15.15
2018-07-12T03:29:06.728Z,15.18
2018-07-12T03:31:34.317Z,15.15
2018-07-12T03:34:01.673Z,15.15
2018-07-12T03:36:29.292Z,15.14
2018-07-12T03:38:56.589Z,15.13
2018-07-12T03:41:24.294Z,15.16
2018-07-12T03:43:51.631Z,15.16
2018-07-12T03:46:18.981Z,15.21
2018-07-12T03:48:46.321Z,15.27
2018-07-12T03:51:13.665Z,15.31
2018-07-12T03:53:40.983Z,15.31
2018-07-12T03:56:08.357Z,15.29
2018-07-12T03:58:35.665Z,15.30
2018-07-12T04:01:03.045Z,15.33
2018-07-12T04:03:31.374Z,15.35
2018-07-12T04:05:58.663Z,15.35
2018-07-12T04:08:26.030Z,15.40
2018-07-12T04:10:53.452Z,15.40
2018-07-12T04:13:20.809Z,15.37
2018-07-12T04:15:48.407Z,15.38
2018-07-12T04:18:15.745Z,15.40
2018-07-12T04:20:43.169Z,15.39
2018-07-12T04:23:10.498Z,15.36
2018-07-12T04:25:37.925Z,15.36
2018-07-12T04:28:05.256Z,15.35
2018-07-12T04:30:32.552Z,15.43
2018-07-12T04:32:59.903Z,15.50
2018-07-12T04:35:27.314Z,15.45
2018-07-12T04:37:54.782Z,15.45
2018-07-12T04:40:22.170Z,15.47
2018-07-12T04:42:49.582Z,15.43
2018-07-12T04:45:16.976Z,15.40
2018-07-12T04:47:44.305Z,15.40
2018-07-12T04:50:11.657Z,15.46
2018-07-12T04:52:39.052Z,15.46
2018-07-12T04:55:06.383Z,15.50
2018-07-12T04:57:33.733Z,15.47
2018-07-12T05:00:01.072Z,15.50
2018-07-12T05:02:28.454Z,15.52
2018-07-12T05:04:55.804Z,15.57
2018-07-12T05:07:23.141Z,15.55
2018-07-12T05:09:50.813Z,15.62
2018-07-12T05:12:18.353Z,15.68
2018-07-12T05:14:45.751Z,15.73
2018-07-12T05:17:13.198Z,15.75
2018-07-12T05:19:40.522Z,15.74
2018-07-12T05:22:08.600Z,15.78
2018-07-12T05:24:36.017Z,15.82
2018-07-12T05:27:03.382Z,15.88
2018-07-12T05:29:30.708Z,15.93
2018-07-12T05:31:58.040Z,15.98
2018-07-12T05:34:25.391Z,16.05
2018-07-12T05:36:57.099Z,16.10
2018-07-12T05:39:25.765Z,16.14
2018-07-12T05:41:54.436Z,16.17
2018-07-12T05:44:23.470Z,16.30
2018-07-12T05:46:52.173Z,16.35
2018-07-12T05:49:21.102Z,16.43
2018-07-12T05:51:49.803Z,16.54
2018-07-12T05:54:19.472Z,16.55
2018-07-12T05:56:48.384Z,16.59
2018-07-12T05:59:17.629Z,16.63
2018-07-12T06:01:57.687Z,16.66
2018-07-12T06:04:26.630Z,16.74
2018-07-12T06:06:55.324Z,16.75
2018-07-12T06:09:23.922Z,16.78
2018-07-12T06:11:53.437Z,16.82
2018-07-12T06:14:22.075Z,16.87
2018-07-12T06:16:50.729Z,16.90
2018-07-12T06:19:19.461Z,16.98
2018-07-12T06:21:48.141Z,16.99
2018-07-12T06:24:16.838Z,17.03
2018-07-12T06:26:45.583Z,17.05
2018-07-12T06:29:14.187Z,17.11
2018-07-12T06:31:42.854Z,17.17
2018-07-12T06:34:11.910Z,17.26
2018-07-12T06:36:40.537Z,17.34
2018-07-12T06:39:10.865Z,17.43
2018-07-12T06:41:39.553Z,17.50
2018-07-12T06:44:08.251Z,17.56
2018-07-12T06:46:37.341Z,17.60
2018-07-12T06:49:06.229Z,17.61
2018-07-12T06:51:35.233Z,17.59
2018-07-12T06:54:04.569Z,17.58
2018-07-12T06:56:33.528Z,17.57
2018-07-12T06:59:02.353Z,17.60
2018-07-12T07:01:31.066Z,17.61
2018-07-12T07:03:59.726Z,17.60
2018-07-12T07:06:29.098Z,17.58
2018-07-12T07:08:57.915Z,17.59
2018-07-12T07:11:26.564Z,17.60
2018-07-12T07:13:55.229Z,17.58
2018-07-12T07:16:23.900Z,17.53
2018-07-12T07:18:52.603Z,17.50
2018-07-12T07:21:21.360Z,17.44
2018-07-12T07:23:50.348Z,17.44
2018-07-12T07:26:19.093Z,17.46
2018-07-12T07:28:47.929Z,17.49
2018-07-12T07:31:16.901Z,17.54
2018-07-12T07:33:45.544Z,17.57
2018-07-12T07:36:14.171Z,17.58
2018-07-12T07:38:42.833Z,17.58
2018-07-12T07:41:12.770Z,17.59
2018-07-12T07:43:43.171Z,17.62
2018-07-12T07:46:12.074Z,17.62
2018-07-12T07:48:41.082Z,17.64
2018-07-12T07:51:10.266Z,17.65
2018-07-12T07:53:39.268Z,17.66
2018-07-12T07:56:08.125Z,17.69
2018-07-12T07:58:36.799Z,17.71
2018-07-12T08:01:05.434Z,17.67
2018-07-12T08:03:34.709Z,17.68
2018-07-12T08:06:04.626Z,17.65
2018-07-12T08:08:33.283Z,17.64
2018-07-12T08:11:01.964Z,17.67
2018-07-12T08:13:30.677Z,17.63
2018-07-12T08:15:59.404Z,17.65
2018-07-12T08:18:28.721Z,17.68
2018-07-12T08:20:57.451Z,17.66
2018-07-12T08:23:27.071Z,17.65
2018-07-12T08:25:55.984Z,17.63
2018-07-12T08:28:26.590Z,17.65
2018-07-12T08:30:55.927Z,17.65
2018-07-12T08:33:25.015Z,17.66
2018-07-12T08:35:53.726Z,17.66
2018-07-12T08:38:22.482Z,17.68
2018-07-12T08:40:51.113Z,17.63
2018-07-12T08:43:20.038Z,17.60
2018-07-12T08:45:48.963Z,17.63
2018-07-12T08:48:17.687Z,17.61
2018-07-12T08:50:46.408Z,17.59
2018-07-12T08:53:15.019Z,17.59
2018-07-12T08:55:43.667Z,17.66
2018-07-12T08:58:12.339Z,17.67
2018-07-12T09:00:40.970Z,17.71
2018-07-12T09:03:09.685Z,17.78
2018-07-12T09:05:38.640Z,17.80
2018-07-12T09:08:07.833Z,17.78
2018-07-12T09:10:36.887Z,17.74
2018-07-12T09:13:05.519Z,17.74
2018-07-12T09:15:34.783Z,17.74
2018-07-12T09:18:03.639Z,17.71
2018-07-12T09:20:34.950Z,17.68
2018-07-12T09:23:03.618Z,17.67
2018-07-12T09:25:32.588Z,17.67
2018-07-12T09:28:01.233Z,17.72
2018-07-12T09:30:30.198Z,17.82
2018-07-12T09:32:58.881Z,17.93
2018-07-12T09:35:27.501Z,18.06
2018-07-12T09:37:56.764Z,18.20
2018-07-12T09:40:25.591Z,18.29
2018-07-12T09:42:54.456Z,18.39
2018-07-12T09:45:23.068Z,18.51
2018-07-12T09:47:52.623Z,18.54
2018-07-12T09:50:21.411Z,18.59
2018-07-12T09:52:50.026Z,18.58
2018-07-12T09:55:18.911Z,18.61
2018-07-12T09:57:58.596Z,18.67
2018-07-12T10:00:32.450Z,18.68
2018-07-12T10:03:19.654Z,18.74
2018-07-12T10:05:53.591Z,18.69
2018-07-12T10:08:28.894Z,18.63
2018-07-12T10:11:02.737Z,18.64
2018-07-12T10:13:37.373Z,18.70
2018-07-12T10:17:13.148Z,18.69
2018-07-12T10:19:43.228Z,18.77
2018-07-12T10:22:12.292Z,18.87
2018-07-12T10:24:40.997Z,18.89
2018-07-12T10:27:09.671Z,18.97
2018-07-12T10:29:38.720Z,18.97
2018-07-12T10:32:08.071Z,19.04
2018-07-12T10:34:36.724Z,19.05
2018-07-12T10:37:05.368Z,19.03
2018-07-12T10:39:34.740Z,19.05
2018-07-12T10:42:03.390Z,19.08
2018-07-12T10:44:32.127Z,19.04
2018-07-12T10:47:00.806Z,19.05
2018-07-12T10:49:29.675Z,19.13
2018-07-12T10:51:58.890Z,19.24
2018-07-12T10:54:27.837Z,19.29
2018-07-12T10:56:56.607Z,19.33
2018-07-12T10:59:25.562Z,19.36
2018-07-12T11:01:54.527Z,19.34
2018-07-12T11:04:23.424Z,19.41
2018-07-12T11:06:52.090Z,19.46
2018-07-12T11:09:20.925Z,19.48
2018-07-12T11:11:49.840Z,19.54
2018-07-12T11:14:18.969Z,19.62
2018-07-12T11:16:47.592Z,19.65
2018-07-12T11:19:16.485Z,19.72
2018-07-12T11:21:45.597Z,19.78
2018-07-12T11:24:14.312Z,19.82
2018-07-12T11:26:43.341Z,19.88
2018-07-12T11:29:12.350Z,20.00
2018-07-12T11:31:41.903Z,19.98
2018-07-12T11:34:10.856Z,20.06
2018-07-12T11:36:39.570Z,20.22
2018-07-12T11:39:08.594Z,20.42
2018-07-12T11:41:37.687Z,20.43
2018-07-12T11:44:06.376Z,20.45
2018-07-12T11:46:35.015Z,20.44
2018-07-12T11:49:03.654Z,20.49
2018-07-12T11:51:32.322Z,20.49
2018-07-12T11:54:00.974Z,20.63
2018-07-12T11:56:29.851Z,20.83
2018-07-12T11:58:58.504Z,20.94
2018-07-12T12:01:27.441Z,21.11
2018-07-12T12:03:56.108Z,21.39
2018-07-12T12:06:25.040Z,21.59
2018-07-12T12:08:53.997Z,21.85
2018-07-12T12:11:24.400Z,22.00
2018-07-12T12:13:53.664Z,22.11
2018-07-12T12:16:22.385Z,21.91
2018-07-12T12:18:52.207Z,21.69
2018-07-12T12:21:21.546Z,21.47
2018-07-12T12:23:50.498Z,21.29
2018-07-12T12:26:19.486Z,21.11
2018-07-12T12:28:48.239Z,20.94
2018-07-12T12:31:16.834Z,20.78
2018-07-12T12:33:45.690Z,20.70
2018-07-12T12:36:14.431Z,20.62
2018-07-12T12:38:43.957Z,20.54
2018-07-12T12:41:12.653Z,20.57
2018-07-12T12:43:41.381Z,20.54
2018-07-12T12:46:10.324Z,20.59
2018-07-12T12:48:39.023Z,20.64
2018-07-12T12:51:08.100Z,20.74
2018-07-12T12:53:37.036Z,20.78
2018-07-12T12:56:06.076Z,20.81
2018-07-12T12:58:35.354Z,20.78
2018-07-12T13:01:04.238Z,20.76
2018-07-12T13:03:33.207Z,20.78
2018-07-12T13:06:01.914Z,20.84
2018-07-12T13:08:30.687Z,20.89
2018-07-12T13:10:59.324Z,20.96
2018-07-12T13:13:28.273Z,20.99
2018-07-12T13:15:57.000Z,20.92
2018-07-12T13:18:26.667Z,20.97
2018-07-12T13:20:55.634Z,20.89
2018-07-12T13:23:24.857Z,21.10
2018-07-12T13:25:53.716Z,21.06
2018-07-12T13:28:23.882Z,21.12
2018-07-12T13:30:53.232Z,21.28
2018-07-12T13:33:21.908Z,21.24
2018-07-12T13:35:50.798Z,21.28
2018-07-12T13:38:20.576Z,21.33
2018-07-12T13:40:50.359Z,21.28
2018-07-12T13:43:20.118Z,21.31
2018-07-12T13:45:48.764Z,21.34
2018-07-12T13:48:18.879Z,21.33
2018-07-12T13:50:47.799Z,21.31
2018-07-12T13:53:16.499Z,21.28
2018-07-12T13:55:45.860Z,21.20
2018-07-12T13:58:14.573Z,21.02
2018-07-12T14:00:43.330Z,20.86
2018-07-12T14:03:13.535Z,20.76
2018-07-12T14:05:45.079Z,20.56
2018-07-12T14:08:14.211Z,20.41
2018-07-12T14:10:43.094Z,20.30
2018-07-12T14:13:12.177Z,20.29
2018-07-12T14:15:41.120Z,20.26
2018-07-12T14:18:10.765Z,20.22
2018-07-12T14:20:39.482Z,20.16
2018-07-12T14:23:08.404Z,20.18
2018-07-12T14:25:37.095Z,20.18
2018-07-12T14:28:05.925Z,20.19
2018-07-12T14:30:34.977Z,20.24
2018-07-12T14:33:03.673Z,20.33
2018-07-12T14:35:32.273Z,20.43
2018-07-12T14:38:00.920Z,20.49
2018-07-12T14:40:29.538Z,20.48
2018-07-12T14:42:58.218Z,20.51
2018-07-12T14:45:26.857Z,20.53
2018-07-12T14:47:55.535Z,20.52
2018-07-12T14:50:24.230Z,20.52
2018-07-12T14:52:53.201Z,20.54
2018-07-12T14:55:21.929Z,20.61
2018-07-12T14:57:51.225Z,20.58
2018-07-12T15:00:20.573Z,20.63
2018-07-12T15:02:49.245Z,20.66
2018-07-12T15:05:18.318Z,20.80
2018-07-12T15:07:47.019Z,20.85
2018-07-12T15:10:15.695Z,20.84
2018-07-12T15:12:44.470Z,20.91
2018-07-12T15:15:13.634Z,20.91
2018-07-12T15:17:43.633Z,21.00
2018-07-12T15:20:12.388Z,20.98
2018-07-12T15:22:43.027Z,20.95
2018-07-12T15:25:11.925Z,20.96
2018-07-12T15:27:41.842Z,20.97
2018-07-12T15:30:10.902Z,20.93
2018-07-12T15:32:40.024Z,20.89
2018-07-12T15:35:08.723Z,20.78
2018-07-12T15:37:39.084Z,20.70
2018-07-12T15:40:08.141Z,20.62
2018-07-12T15:42:36.878Z,20.61
2018-07-12T15:45:05.854Z,20.48
2018-07-12T15:47:34.543Z,20.35
2018-07-12T15:50:03.255Z,20.29
2018-07-12T15:52:32.347Z,20.23
2018-07-12T15:55:01.060Z,20.16
2018-07-12T15:57:30.091Z,20.13
2018-07-12T15:59:59.046Z,20.13
2018-07-12T16:02:27.747Z,20.06
2018-07-12T16:04:56.966Z,20.04
2018-07-12T16:07:25.936Z,19.99
2018-07-12T16:09:54.768Z,19.94
2018-07-12T16:12:23.513Z,19.89
2018-07-12T16:14:52.358Z,19.86
2018-07-12T16:17:21.442Z,19.82
2018-07-12T16:19:50.208Z,19.84
2018-07-12T16:22:18.913Z,19.83
2018-07-12T16:24:47.555Z,19.83
2018-07-12T16:27:16.642Z,19.84
2018-07-12T16:29:46.000Z,19.83
2018-07-12T16:32:15.730Z,19.82
2018-07-12T16:34:45.210Z,19.77
2018-07-12T16:37:14.154Z,19.72
2018-07-12T16:39:43.930Z,19.68
2018-07-12T16:42:13.112Z,19.65
2018-07-12T16:44:42.867Z,19.60
2018-07-12T16:47:11.553Z,19.59
2018-07-12T16:49:41.229Z,19.57
2018-07-12T16:52:11.091Z,19.54
2018-07-12T16:54:39.941Z,19.54
2018-07-12T16:57:09.730Z,19.59
2018-07-12T16:59:38.480Z,19.65
2018-07-12T17:02:07.446Z,19.66
2018-07-12T17:04:36.734Z,19.60
2018-07-12T17:07:05.425Z,19.51
2018-07-12T17:09:34.391Z,19.41
2018-07-12T17:12:03.021Z,19.35
2018-07-12T17:14:31.690Z,19.27
2018-07-12T17:17:00.350Z,19.22
2018-07-12T17:19:28.990Z,19.20
2018-07-12T17:21:57.878Z,19.14
2018-07-12T17:24:26.485Z,19.12
2018-07-12T17:26:57.135Z,19.08
2018-07-12T17:29:26.101Z,19.05
2018-07-12T17:31:55.347Z,18.98
2018-07-12T17:34:23.996Z,18.93
2018-07-12T17:36:52.761Z,18.88
2018-07-12T17:39:21.513Z,18.89
2018-07-12T17:41:50.274Z,18.90
2018-07-12T17:44:19.639Z,18.89
2018-07-12T17:46:48.291Z,18.90
2018-07-12T17:49:16.985Z,18.93
2018-07-12T17:51:46.068Z,18.95
2018-07-12T17:54:15.009Z,18.99
2018-07-12T17:56:44.340Z,19.00
2018-07-12T17:59:13.349Z,18.99
2018-07-12T18:01:42.051Z,18.97
2018-07-12T18:04:11.579Z,18.96
2018-07-12T18:06:40.313Z,18.97
2018-07-12T18:09:08.977Z,18.97
2018-07-12T18:11:37.727Z,18.96
2018-07-12T18:14:06.654Z,18.95
2018-07-12T18:16:35.622Z,18.96
2018-07-12T18:19:04.607Z,18.98
2018-07-12T18:21:33.983Z,18.99
2018-07-12T18:24:02.640Z,19.00
2018-07-12T18:26:31.267Z,19.02
2018-07-12T18:29:00.303Z,19.02
2018-07-12T18:31:29.035Z,19.00
2018-07-12T18:33:57.946Z,18.99
2018-07-12T18:36:26.609Z,18.99
2018-07-12T18:38:55.315Z,19.01
2018-07-12T18:41:23.967Z,19.00
2018-07-12T18:43:52.631Z,19.02
2018-07-12T18:46:21.307Z,19.01
2018-07-12T18:48:50.333Z,19.00
2018-07-12T18:51:18.997Z,19.02
2018-07-12T18:53:47.574Z,19.02
2018-07-12T18:56:16.986Z,19.03
2018-07-12T18:58:45.972Z,19.00
2018-07-12T19:01:14.683Z,19.00
2018-07-12T19:03:43.390Z,19.00
2018-07-12T19:06:12.137Z,18.99
2018-07-12T19:08:40.762Z,18.99
2018-07-12T19:11:09.397Z,18.98
2018-07-12T19:13:38.408Z,18.97
2018-07-12T19:16:07.047Z,18.95
2018-07-12T19:18:36.147Z,18.94
2018-07-12T19:21:05.768Z,18.93
2018-07-12T19:23:35.085Z,18.90
2018-07-12T19:26:04.479Z,18.89
2018-07-12T19:28:33.118Z,18.86
2018-07-12T19:31:04.032Z,18.86
2018-07-12T19:33:33.649Z,18.84
2018-07-12T19:36:02.455Z,18.84
2018-07-12T19:38:31.233Z,18.84
2018-07-12T19:41:00.524Z,18.83
2018-07-12T19:43:29.665Z,18.82
2018-07-12T19:45:58.353Z,18.80
2018-07-12T19:48:27.033Z,18.79
2018-07-12T19:50:55.822Z,18.77
2018-07-12T19:53:25.179Z,18.77
2018-07-12T19:55:53.778Z,18.77
2018-07-12T19:58:22.524Z,18.77
2018-07-12T20:00:51.499Z,18.77
2018-07-12T20:03:20.588Z,18.75
2018-07-12T20:05:49.336Z,18.75
2018-07-12T20:08:18.480Z,18.73
2018-07-12T20:10:47.205Z,18.71
2018-07-12T20:13:15.989Z,18.70
2018-07-12T20:15:44.978Z,18.70
2018-07-12T20:18:14.663Z,18.68
2018-07-12T20:20:43.375Z,18.68
2018-07-12T20:23:12.070Z,18.69
2018-07-12T20:25:40.809Z,18.68
2018-07-12T20:28:09.754Z,18.68
2018-07-12T20:30:38.670Z,18.67
2018-07-12T20:33:07.578Z,18.67
2018-07-12T20:35:37.259Z,18.66
2018-07-12T20:38:06.099Z,18.65
2018-07-12T20:40:34.948Z,18.66
2018-07-12T20:43:03.914Z,18.68
2018-07-12T20:45:32.983Z,18.67
2018-07-12T20:48:02.388Z,18.67
2018-07-12T20:50:31.689Z,18.64
2018-07-12T20:53:01.295Z,18.64
2018-07-12T20:55:30.057Z,18.64
2018-07-12T20:57:58.963Z,18.63
2018-07-12T21:00:28.387Z,18.63
2018-07-12T21:02:57.873Z,18.64
2018-07-12T21:05:26.798Z,18.64
2018-07-12T21:07:55.839Z,18.65
2018-07-12T21:10:24.749Z,18.65
2018-07-12T21:12:53.628Z,18.62
2018-07-12T21:15:22.560Z,18.64
2018-07-12T21:17:51.518Z,18.63
2018-07-12T21:20:20.322Z,18.61
2018-07-12T21:22:49.930Z,18.64
2018-07-12T21:25:19.371Z,18.63
2018-07-12T21:27:48.192Z,18.61
2018-07-12T21:30:18.782Z,18.61
2018-07-12T21:32:48.021Z,18.62
2018-07-12T21:35:17.317Z,18.60
2018-07-12T21:37:47.466Z,18.60
2018-07-12T21:40:16.722Z,18.60
2018-07-12T21:42:45.872Z,18.61
2018-07-12T21:45:14.680Z,18.58
2018-07-12T21:47:43.484Z,18.56
2018-07-12T21:50:13.085Z,18.55
2018-07-12T21:52:41.805Z,18.55
2018-07-12T21:55:10.519Z,18.56
2018-07-12T21:57:39.339Z,18.55
2018-07-12T22:00:10.013Z,18.54
2018-07-12T22:02:38.724Z,18.53
2018-07-12T22:05:07.382Z,18.51
2018-07-12T22:08:16.312Z,18.47
2018-07-12T22:10:45.895Z,18.45
2018-07-12T22:13:15.107Z,18.43
2018-07-12T22:15:43.951Z,18.43
2018-07-12T22:18:13.385Z,18.42
2018-07-12T22:20:42.070Z,18.43
2018-07-12T22:23:10.802Z,18.44
2018-07-12T22:25:39.527Z,18.46
2018-07-12T22:28:08.723Z,18.47
2018-07-12T22:30:37.852Z,18.50
2018-07-12T22:33:06.936Z,18.49
2018-07-12T22:35:35.705Z,18.50
2018-07-12T22:38:04.828Z,18.50
2018-07-12T22:40:34.147Z,18.48
2018-07-12T22:43:03.138Z,18.47
2018-07-12T22:45:32.038Z,18.43
2018-07-12T22:48:01.065Z,18.38
2018-07-12T22:50:30.020Z,18.40
2018-07-12T22:52:58.860Z,18.38
2018-07-12T22:55:27.828Z,18.38
2018-07-12T22:57:56.468Z,18.39
2018-07-12T23:00:25.167Z,18.38
2018-07-12T23:02:55.883Z,18.35
2018-07-12T23:05:24.914Z,18.35
2018-07-12T23:07:53.747Z,18.37
2018-07-12T23:10:22.611Z,18.37
2018-07-12T23:12:53.502Z,18.41
2018-07-12T23:15:22.346Z,18.41
2018-07-12T23:17:51.120Z,18.42
2018-07-12T23:20:19.785Z,18.43
2018-07-12T23:22:48.976Z,18.42
2018-07-12T23:25:17.684Z,18.41
2018-07-12T23:27:46.736Z,18.39
2018-07-12T23:30:15.839Z,18.40
2018-07-12T23:32:44.518Z,18.39
2018-07-12T23:35:13.416Z,18.37
2018-07-12T23:37:42.199Z,18.37
2018-07-12T23:40:11.212Z,18.35
2018-07-12T23:42:40.176Z,18.35
2018-07-12T23:45:08.869Z,18.36
2018-07-12T23:47:37.879Z,18.35
2018-07-12T23:50:07.010Z,18.34
2018-07-12T23:52:36.087Z,18.33
2018-07-12T23:55:04.821Z,18.31
2018-07-12T23:57:33.559Z,18.30
